Time;durP1;ratioP1;P1;durP2;ratioP2;P2;SDS_P1;SDS_P2;PMS_P1;PMS_P2;Temp;Humidity;BMP_temperature;BMP_pressure;BME280_temperature;BME280_humidity;BME280_pressure;Samples;Min_cycle;Max_cycle;Signal;HPM_P1;HPM_P2
2022/11/10 00:00:05;;;;;;;7.47;1.90;;;11.20;1.00;;;;;;5049677;28;20702;-79
2022/11/10 00:02:30;;;;;;;8.20;2.30;;;11.10;1.00;;;;;;5049785;28;20265;-81
2022/11/10 00:04:56;;;;;;;4.60;2.00;;;11.50;1.00;;;;;;5048091;28;20297;-77
2022/11/10 00:07:26;;;;;;;6.87;2.13;;;11.20;1.00;;;;;;5049540;28;20186;-80
2022/11/10 00:09:52;;;;;;;7.33;1.97;;;11.00;1.00;;;;;;5065503;28;20188;-81
2022/11/10 00:12:19;;;;;;;6.50;2.53;;;11.70;1.00;;;;;;5049189;28;20861;-81
2022/11/10 00:17:29;;;;;;;6.93;2.43;;;10.80;1.00;;;;;;5049857;28;20607;-79
2022/11/10 00:19:55;;;;;;;6.07;2.30;;;11.10;1.00;;;;;;5048314;28;20186;-77
2022/11/10 00:22:20;;;;;;;7.37;2.40;;;11.00;1.00;;;;;;5049163;28;20607;-80
2022/11/10 00:24:46;;;;;;;6.50;2.00;;;11.00;1.00;;;;;;5049307;28;20206;-78
2022/11/10 00:27:13;;;;;;;6.30;1.93;;;11.00;1.00;;;;;;5046838;28;20248;-79
2022/11/10 00:29:39;;;;;;;3.33;1.70;;;11.20;1.00;;;;;;5046701;28;20273;-81
2022/11/10 00:32:05;;;;;;;5.93;2.03;;;11.00;1.00;;;;;;5061391;28;20220;-82
2022/11/10 00:34:31;;;;;;;5.43;1.83;;;10.80;1.00;;;;;;5045838;28;20294;-82
2022/11/10 00:36:57;;;;;;;4.37;1.90;;;11.00;1.00;;;;;;5047572;28;20269;-82
2022/11/10 00:39:22;;;;;;;4.87;2.03;;;10.60;1.00;;;;;;5046996;28;20182;-79
2022/11/10 00:41:48;;;;;;;5.43;2.10;;;10.80;1.00;;;;;;5048386;28;20545;-81
2022/11/10 00:44:13;;;;;;;6.07;1.77;;;11.20;1.00;;;;;;5046228;28;20214;-82
2022/11/10 00:46:39;;;;;;;6.53;2.10;;;10.60;1.00;;;;;;5047798;28;20182;-83
2022/11/10 00:49:05;;;;;;;7.77;2.00;;;11.00;1.00;;;;;;5046898;28;20276;-83
2022/11/10 00:51:30;;;;;;;5.63;1.87;;;10.90;1.00;;;;;;5047933;28;20217;-80
2022/11/10 00:53:56;;;;;;;6.87;1.87;;;11.00;1.00;;;;;;5048453;28;20197;-79
2022/11/10 00:56:22;;;;;;;4.77;1.97;;;11.00;1.00;;;;;;5048907;28;20216;-80
2022/11/10 00:58:47;;;;;;;6.90;1.80;;;11.30;1.00;;;;;;5048831;28;20221;-82
2022/11/10 01:01:14;;;;;;;4.53;2.03;;;10.90;1.00;;;;;;5048269;28;20202;-80
2022/11/10 01:03:40;;;;;;;4.27;1.90;;;10.90;1.00;;;;;;5046378;28;20273;-79
2022/11/10 01:06:08;;;;;;;4.90;1.63;;;10.80;1.00;;;;;;5044973;28;20644;-79
2022/11/10 01:08:33;;;;;;;6.30;1.70;;;10.90;1.00;;;;;;5045146;28;20190;-80
2022/11/10 01:11:14;;;;;;;4.93;1.80;;;10.40;1.00;;;;;;5046580;28;20194;-78
2022/11/10 01:13:40;;;;;;;6.00;2.00;;;10.70;1.00;;;;;;5044578;28;20198;-79
2022/11/10 01:16:08;;;;;;;6.70;2.30;;;10.70;1.00;;;;;;5046875;28;20201;-80
2022/11/10 01:18:34;;;;;;;6.40;1.90;;;10.80;1.00;;;;;;5046360;28;20580;-79
2022/11/10 01:21:00;;;;;;;6.37;1.80;;;11.20;1.00;;;;;;5044086;28;20252;-82
2022/11/10 01:23:26;;;;;;;3.83;1.70;;;10.30;1.00;;;;;;5044638;28;21054;-78
2022/11/10 01:25:56;;;;;;;8.23;2.20;;;10.30;1.00;;;;;;5045370;28;20205;-80
2022/11/10 01:28:22;;;;;;;4.23;1.70;;;10.70;1.00;;;;;;5045543;28;20293;-79
2022/11/10 01:30:47;;;;;;;9.53;2.17;;;10.60;1.00;;;;;;5046262;28;20297;-80
2022/11/10 01:33:13;;;;;;;5.40;1.60;;;10.50;1.00;;;;;;5048996;28;20198;-77
2022/11/10 01:35:38;;;;;;;9.13;2.13;;;10.80;1.00;;;;;;5048946;28;20741;-78
2022/11/10 01:38:04;;;;;;;5.93;1.93;;;10.70;1.00;;;;;;5049551;28;20217;-79
2022/11/10 01:40:29;;;;;;;5.63;1.60;;;10.40;1.00;;;;;;5048681;28;20190;-81
2022/11/10 01:42:57;;;;;;;7.37;1.87;;;10.70;1.00;;;;;;5048721;28;20206;-81
2022/11/10 01:45:22;;;;;;;6.27;1.63;;;10.40;1.00;;;;;;5047333;28;20210;-78
2022/11/10 01:48:01;;;;;;;4.97;1.80;;;11.20;1.00;;;;;;5049332;28;20630;-79
2022/11/10 01:50:32;;;;;;;5.43;1.93;;;10.60;1.00;;;;;;5046575;28;20201;-79
2022/11/10 01:53:02;;;;;;;5.27;1.87;;;10.70;1.00;;;;;;5048424;28;20197;-78
2022/11/10 01:55:28;;;;;;;7.80;2.00;;;10.70;1.00;;;;;;5047419;28;20222;-78
2022/11/10 01:57:55;;;;;;;5.70;2.10;;;10.50;1.00;;;;;;5048325;28;20221;-81
2022/11/10 02:00:21;;;;;;;9.40;2.07;;;10.70;1.00;;;;;;5048998;28;20196;-80
2022/11/10 02:03:19;;;;;;;6.90;2.00;;;10.90;1.00;;;;;;5048960;28;20367;-78
2022/11/10 02:05:45;;;;;;;6.93;1.87;;;10.60;1.00;;;;;;5039292;28;20210;-79
2022/11/10 02:08:14;;;;;;;5.07;1.73;;;10.60;1.00;;;;;;5050299;28;20652;-80
2022/11/10 02:10:40;;;;;;;4.10;2.50;;;10.60;1.00;;;;;;5049759;28;20219;-81
2022/11/10 02:13:06;;;;;;;7.03;1.80;;;10.60;1.00;;;;;;5048331;28;20269;-77
2022/11/10 02:15:31;;;;;;;7.17;2.50;;;10.10;1.00;;;;;;5048422;28;20229;-79
2022/11/10 02:17:57;;;;;;;5.60;2.20;;;10.80;1.00;;;;;;5047476;28;20217;-78
2022/11/10 02:20:23;;;;;;;6.13;2.53;;;10.50;1.00;;;;;;5048572;28;20186;-82
2022/11/10 02:22:48;;;;;;;6.57;2.10;;;10.50;1.00;;;;;;5048036;28;20190;-77
2022/11/10 02:25:19;;;;;;;3.97;1.70;;;10.30;1.00;;;;;;5048310;28;20259;-81
2022/11/10 02:27:44;;;;;;;6.13;1.90;;;10.10;1.00;;;;;;5049130;28;20674;-79
2022/11/10 02:30:11;;;;;;;5.27;2.00;;;9.90;1.00;;;;;;5046582;28;20194;-78
2022/11/10 02:32:36;;;;;;;6.13;2.10;;;9.50;1.00;;;;;;5047986;28;20197;-79
2022/11/10 02:35:03;;;;;;;7.70;2.60;;;9.60;1.00;;;;;;5048101;28;21084;-81
2022/11/10 02:37:28;;;;;;;7.90;2.20;;;9.60;1.00;;;;;;5047951;28;20280;-77
2022/11/10 02:39:54;;;;;;;6.97;2.30;;;9.50;1.00;;;;;;5047284;28;21402;-79
2022/11/10 02:42:19;;;;;;;8.80;3.03;;;9.70;5.80;;;;;;5046535;28;20246;-78
2022/11/10 02:44:45;;;;;;;10.27;2.47;;;9.20;14.70;;;;;;5048331;28;20596;-80
2022/11/10 02:47:11;;;;;;;7.70;2.37;;;9.80;30.70;;;;;;5048571;28;20187;-78
2022/11/10 02:49:37;;;;;;;6.87;2.50;;;9.20;26.50;;;;;;5048322;28;20734;-80
2022/11/10 02:52:02;;;;;;;5.40;2.20;;;9.10;32.20;;;;;;5048634;28;20198;-80
2022/11/10 02:54:28;;;;;;;7.23;2.23;;;9.20;47.70;;;;;;5047213;28;20229;-79
2022/11/10 02:56:54;;;;;;;5.20;2.57;;;9.70;51.90;;;;;;5048558;28;20194;-80
2022/11/10 02:59:19;;;;;;;8.57;2.63;;;8.80;55.70;;;;;;5047073;28;20186;-78
2022/11/10 03:01:45;;;;;;;5.60;2.20;;;9.10;65.40;;;;;;5048756;28;20198;-81
2022/11/10 03:04:10;;;;;;;4.17;2.20;;;8.80;77.50;;;;;;5049037;28;20206;-79
2022/11/10 03:06:36;;;;;;;4.50;2.80;;;9.10;90.60;;;;;;5046242;28;20261;-80
2022/11/10 03:09:02;;;;;;;8.53;2.63;;;9.10;89.40;;;;;;5063977;28;20190;-80
2022/11/10 03:11:27;;;;;;;7.43;2.50;;;9.00;91.60;;;;;;5049009;28;20186;-81
2022/11/10 03:13:53;;;;;;;6.33;2.83;;;8.90;98.90;;;;;;5048676;28;20440;-80
2022/11/10 03:16:19;;;;;;;8.33;3.10;;;9.70;99.90;;;;;;5047473;28;20562;-82
2022/11/10 03:18:44;;;;;;;6.50;2.90;;;8.90;99.90;;;;;;5048647;28;20221;-78
2022/11/10 03:21:10;;;;;;;8.30;2.80;;;8.50;99.90;;;;;;5047552;28;20178;-81
2022/11/10 03:23:36;;;;;;;6.07;2.73;;;8.80;99.90;;;;;;5048875;28;20193;-81
2022/11/10 03:26:06;;;;;;;7.57;2.87;;;8.70;99.90;;;;;;5049687;28;20336;-80
2022/11/10 03:28:31;;;;;;;7.67;2.70;;;8.70;99.90;;;;;;5047623;28;20182;-80
2022/11/10 03:30:57;;;;;;;6.90;3.17;;;8.50;99.90;;;;;;5046565;28;20679;-78
2022/11/10 03:33:23;;;;;;;6.03;3.23;;;8.60;99.90;;;;;;5050019;28;20182;-79
2022/11/10 03:35:48;;;;;;;6.57;3.03;;;8.70;99.90;;;;;;5047933;28;20205;-80
2022/11/10 03:38:14;;;;;;;12.60;3.23;;;8.10;99.90;;;;;;5049963;28;20217;-81
2022/11/10 03:40:39;;;;;;;7.73;3.40;;;8.60;99.90;;;;;;5049801;28;20192;-82
2022/11/10 03:43:05;;;;;;;8.60;3.10;;;9.20;99.90;;;;;;5048464;28;20751;-82
2022/11/10 03:45:31;;;;;;;8.17;3.23;;;8.30;99.90;;;;;;5049684;28;20208;-79
2022/11/10 03:47:56;;;;;;;5.50;3.23;;;8.60;99.90;;;;;;5048618;28;20213;-80
2022/11/10 03:50:22;;;;;;;9.23;3.50;;;8.30;99.90;;;;;;5049930;28;20776;-83
2022/11/10 03:52:47;;;;;;;6.70;3.17;;;8.30;99.90;;;;;;5049621;28;20196;-80
2022/11/10 03:55:15;;;;;;;7.83;3.37;;;8.10;99.90;;;;;;5047764;28;20634;-79
2022/11/10 03:57:41;;;;;;;9.73;3.27;;;8.10;99.90;;;;;;5044374;28;20209;-79
2022/11/10 04:00:08;;;;;;;7.23;3.60;;;7.70;99.90;;;;;;5046717;28;20190;-79
2022/11/10 04:02:35;;;;;;;7.67;3.87;;;8.00;99.90;;;;;;5046479;28;20197;-78
2022/11/10 04:10:28;;;;;;;19.63;10.10;;;8.60;1.00;;;;;;5046898;28;20224;-81
2022/11/10 04:15:41;;;;;;;12.13;5.60;;;8.10;1.00;;;;;;5046495;28;20936;-82
2022/11/10 04:18:20;;;;;;;10.17;5.07;;;6.90;1.00;;;;;;5046613;28;20218;-80
2022/11/10 04:20:56;;;;;;;7.23;4.60;;;7.70;1.00;;;;;;5046094;28;20189;-80
2022/11/10 04:23:26;;;;;;;9.60;4.70;;;7.70;1.00;;;;;;5046812;28;20648;-81
2022/11/10 04:28:49;;;;;;;11.60;5.00;;;7.50;1.00;;;;;;5046078;28;20200;-78
2022/11/10 04:31:17;;;;;;;10.97;4.43;;;7.70;1.00;;;;;;5044860;28;20544;-78
2022/11/10 04:33:43;;;;;;;7.27;4.73;;;7.50;1.00;;;;;;5045963;28;20182;-82
2022/11/10 04:36:12;;;;;;;9.10;5.30;;;7.40;1.00;;;;;;5046356;28;20189;-79
2022/11/10 04:38:38;;;;;;;8.27;5.30;;;7.10;1.00;;;;;;5045189;28;20198;-81
2022/11/10 04:41:03;;;;;;;14.37;7.47;;;7.80;92.40;;;;;;5046439;28;20178;-79
2022/11/10 04:43:29;;;;;;;15.47;9.23;;;7.40;99.90;;;;;;5045827;28;20686;-79
2022/11/10 04:45:55;;;;;;;16.77;10.93;;;7.70;99.90;;;;;;5044744;28;20205;-82
2022/11/10 04:48:21;;;;;;;15.43;9.20;;;8.30;1.00;;;;;;5044974;28;20675;-82
2022/11/10 04:50:47;;;;;;;11.67;7.40;;;7.60;1.00;;;;;;5046403;28;20277;-83
2022/11/10 04:53:13;;;;;;;13.93;7.70;;;7.70;1.00;;;;;;5046230;28;20269;-80
2022/11/10 04:55:43;;;;;;;9.07;7.00;;;8.00;1.00;;;;;;5043941;28;20202;-80
2022/11/10 04:58:09;;;;;;;11.47;7.07;;;7.70;1.00;;;;;;5045785;28;20218;-81
2022/11/10 05:00:36;;;;;;;13.20;6.90;;;7.70;1.00;;;;;;5046062;28;20202;-80
2022/11/10 05:03:04;;;;;;;11.03;6.57;;;7.50;1.00;;;;;;5046134;28;20186;-80
2022/11/10 05:05:30;;;;;;;11.90;6.73;;;7.60;1.00;;;;;;5046236;28;20194;-82
2022/11/10 05:07:56;;;;;;;11.27;6.53;;;7.50;1.00;;;;;;5048722;28;20680;-78
2022/11/10 05:10:22;;;;;;;11.50;6.77;;;7.50;1.00;;;;;;5049628;28;20185;-82
2022/11/10 05:12:48;;;;;;;11.50;6.23;;;7.50;1.00;;;;;;5050371;28;20192;-79
2022/11/10 05:15:13;;;;;;;11.00;6.30;;;8.60;1.00;;;;;;5050579;28;20979;-79
2022/11/10 05:17:39;;;;;;;10.17;6.47;;;8.30;1.00;;;;;;5049793;28;20224;-77
2022/11/10 05:20:06;;;;;;;12.23;6.47;;;7.50;1.00;;;;;;5051251;28;20235;-83
2022/11/10 05:22:32;;;;;;;10.63;7.37;;;7.60;1.00;;;;;;5065655;28;20174;-79
2022/11/10 05:24:57;;;;;;;9.63;7.43;;;8.20;1.00;;;;;;5065089;28;20213;-79
2022/11/10 05:27:23;;;;;;;11.17;6.50;;;7.80;1.00;;;;;;5049388;28;20201;-79
2022/11/10 05:29:48;;;;;;;11.93;6.50;;;7.90;1.00;;;;;;5050044;28;20523;-81
2022/11/10 05:32:14;;;;;;;11.23;6.47;;;6.80;1.00;;;;;;5050665;28;20193;-80
2022/11/10 05:34:40;;;;;;;11.80;6.33;;;7.70;1.00;;;;;;5049144;28;20412;-80
2022/11/10 05:37:05;;;;;;;9.43;6.50;;;7.70;1.00;;;;;;5049923;28;20679;-78
2022/11/10 05:39:31;;;;;;;10.93;6.27;;;7.90;1.00;;;;;;5049961;28;20651;-81
2022/11/10 05:41:56;;;;;;;10.10;6.53;;;7.70;1.00;;;;;;5050244;28;20324;-82
2022/11/10 05:44:22;;;;;;;10.03;6.73;;;8.10;6.70;;;;;;5048875;28;20209;-80
2022/11/10 05:46:47;;;;;;;9.80;6.33;;;7.40;38.20;;;;;;5050235;28;20194;-78
2022/11/10 05:49:13;;;;;;;8.80;6.00;;;7.80;99.90;;;;;;5048912;28;20189;-82
2022/11/10 05:51:39;;;;;;;10.73;6.37;;;7.50;99.90;;;;;;5050557;28;20182;-81
2022/11/10 05:54:04;;;;;;;12.07;6.63;;;7.90;99.90;;;;;;5065253;28;20213;-80
2022/11/10 05:56:30;;;;;;;9.30;5.73;;;7.40;99.90;;;;;;5050335;28;20222;-79
2022/11/10 05:58:55;;;;;;;13.73;6.40;;;7.40;99.90;;;;;;5049879;28;20229;-80
2022/11/10 06:01:21;;;;;;;14.70;7.03;;;7.50;1.00;;;;;;5048950;28;20182;-81
2022/11/10 06:03:46;;;;;;;9.90;6.37;;;7.40;99.90;;;;;;5048758;28;20650;-81
2022/11/10 06:06:12;;;;;;;10.50;6.80;;;7.40;1.00;;;;;;5049575;28;20268;-80
2022/11/10 06:08:38;;;;;;;11.13;6.47;;;7.60;1.00;;;;;;5050056;28;20832;-81
2022/11/10 06:11:03;;;;;;;10.93;6.80;;;8.20;1.00;;;;;;5050257;28;20235;-80
2022/11/10 06:13:29;;;;;;;12.37;6.80;;;7.50;1.00;;;;;;5065834;28;20244;-79
2022/11/10 06:15:54;;;;;;;13.63;7.50;;;7.50;1.00;;;;;;5050676;28;20587;-79
2022/11/10 06:18:20;;;;;;;9.03;6.73;;;7.70;1.00;;;;;;5047649;28;20205;-82
2022/11/10 06:20:46;;;;;;;11.73;6.80;;;7.80;1.00;;;;;;5050176;28;20197;-79
2022/11/10 06:23:13;;;;;;;22.17;11.07;;;7.80;1.10;;;;;;5051505;28;20186;-83
2022/11/10 06:25:39;;;;;;;22.20;13.50;;;8.30;96.50;;;;;;5050649;28;20209;-83
2022/11/10 06:28:06;;;;;;;52.70;25.43;;;8.00;99.90;;;;;;5050761;28;20268;-80
2022/11/10 06:30:34;;;;;;;45.43;22.90;;;7.80;99.90;;;;;;5049430;28;20209;-83
2022/11/10 06:32:59;;;;;;;41.97;20.80;;;7.80;99.90;;;;;;5050493;28;20193;-82
2022/11/10 06:35:25;;;;;;;28.47;15.97;;;7.90;99.90;;;;;;5051810;28;20202;-80
2022/11/10 06:38:03;;;;;;;23.00;12.30;;;8.70;99.90;;;;;;5048558;28;20221;-81
2022/11/10 06:40:29;;;;;;;22.23;11.13;;;8.20;99.90;;;;;;5050872;28;20197;-82
2022/11/10 06:42:56;;;;;;;20.97;11.10;;;8.80;99.90;;;;;;5050278;28;20281;-79
2022/11/10 06:45:23;;;;;;;20.23;12.07;;;8.30;1.00;;;;;;5050641;28;20720;-79
2022/11/10 06:48:08;;;;;;;17.87;9.37;;;8.60;1.00;;;;;;5050059;28;20600;-79
2022/11/10 06:50:34;;;;;;;13.87;8.63;;;8.60;1.00;;;;;;5047663;28;20182;-79
2022/11/10 06:53:00;;;;;;;20.30;8.53;;;8.60;1.00;;;;;;5047772;28;20178;-81
2022/11/10 06:55:26;;;;;;;13.87;6.53;;;8.40;99.90;;;;;;5047408;28;20695;-80
2022/11/10 06:57:53;;;;;;;13.63;5.37;;;8.40;99.90;;;;;;5047697;28;20248;-81
2022/11/10 07:00:19;;;;;;;12.27;5.53;;;8.70;99.90;;;;;;5047329;28;20184;-79
2022/11/10 07:02:44;;;;;;;12.93;6.10;;;8.30;99.90;;;;;;5047357;28;20277;-80
2022/11/10 07:05:10;;;;;;;11.67;5.20;;;8.40;99.90;;;;;;5047860;28;20206;-79
2022/11/10 07:07:36;;;;;;;12.43;4.90;;;9.00;99.90;;;;;;5046653;28;20185;-81
2022/11/10 07:10:02;;;;;;;15.23;4.97;;;8.60;66.10;;;;;;5046797;28;20190;-82
2022/11/10 07:12:27;;;;;;;9.70;5.07;;;8.50;1.00;;;;;;5046746;28;20201;-79
2022/11/10 07:14:53;;;;;;;8.90;4.93;;;8.90;1.00;;;;;;5046324;28;20278;-80
2022/11/10 07:17:18;;;;;;;11.57;4.93;;;8.90;1.00;;;;;;5044498;28;20271;-78
2022/11/10 07:19:44;;;;;;;7.20;3.80;;;8.80;1.00;;;;;;5044940;28;20190;-82
2022/11/10 07:22:10;;;;;;;8.70;4.00;;;9.00;1.00;;;;;;5046474;28;20267;-80
2022/11/10 07:24:35;;;;;;;7.37;4.17;;;8.80;1.00;;;;;;5047112;28;20289;-80
2022/11/10 07:27:01;;;;;;;11.53;4.07;;;9.00;1.00;;;;;;5046024;28;20525;-79
2022/11/10 07:29:26;;;;;;;8.33;4.00;;;8.90;1.00;;;;;;5047582;28;20185;-80
2022/11/10 07:31:52;;;;;;;8.83;4.27;;;9.00;1.00;;;;;;5047751;28;20204;-78
2022/11/10 07:34:18;;;;;;;7.70;3.30;;;8.80;1.00;;;;;;5045840;28;20247;-79
2022/11/10 07:36:43;;;;;;;8.97;3.73;;;9.30;1.00;;;;;;5047678;28;20194;-79
2022/11/10 07:39:10;;;;;;;7.53;3.80;;;9.10;1.00;;;;;;5048346;28;20723;-80
2022/11/10 07:41:36;;;;;;;7.63;4.10;;;8.70;1.00;;;;;;5045196;28;20182;-79
2022/11/10 07:44:02;;;;;;;8.53;3.73;;;9.30;1.00;;;;;;5047826;28;20218;-80
2022/11/10 07:46:29;;;;;;;8.03;3.63;;;8.80;99.90;;;;;;5054952;28;20194;-80
2022/11/10 07:48:54;;;;;;;9.17;3.53;;;9.00;99.90;;;;;;5055808;28;20190;-81
2022/11/10 07:51:20;;;;;;;5.73;2.80;;;9.20;99.90;;;;;;5056531;28;20258;-79
2022/11/10 07:53:46;;;;;;;7.83;3.27;;;9.30;99.90;;;;;;5055516;28;20446;-79
2022/11/10 07:56:11;;;;;;;6.67;2.80;;;9.50;99.90;;;;;;5057295;28;20186;-80
2022/11/10 07:58:37;;;;;;;7.80;2.63;;;10.10;99.90;;;;;;5056299;28;20222;-78
2022/11/10 08:01:03;;;;;;;5.80;2.30;;;9.80;99.90;;;;;;5052589;28;20210;-80
2022/11/10 08:03:29;;;;;;;6.73;2.70;;;9.90;99.90;;;;;;5054059;28;20182;-80
2022/11/10 08:05:55;;;;;;;7.57;2.50;;;10.00;99.90;;;;;;5054332;28;20220;-80
2022/11/10 08:08:21;;;;;;;8.37;2.23;;;10.00;99.90;;;;;;5053673;28;20178;-80
2022/11/10 08:10:46;;;;;;;7.53;2.27;;;10.00;99.90;;;;;;5053044;28;20272;-80
2022/11/10 08:13:12;;;;;;;7.20;2.40;;;10.40;99.90;;;;;;5053442;28;20718;-79
2022/11/10 08:15:39;;;;;;;6.43;2.40;;;9.90;99.90;;;;;;5054293;28;20233;-80
2022/11/10 08:18:16;;;;;;;5.50;2.90;;;10.00;99.90;;;;;;5052779;28;20210;-82
2022/11/10 08:20:41;;;;;;;5.10;2.63;;;10.00;99.90;;;;;;5044743;28;20177;-82
2022/11/10 08:23:08;;;;;;;6.17;1.90;;;10.00;96.50;;;;;;5046798;28;20240;-82
2022/11/10 08:25:35;;;;;;;8.13;2.20;;;10.10;92.70;;;;;;5045925;28;20198;-84
2022/11/10 08:28:12;;;;;;;7.17;2.60;;;10.10;75.30;;;;;;5062925;28;20186;-81
2022/11/10 08:30:40;;;;;;;6.67;2.13;;;10.30;58.80;;;;;;5045812;28;20183;-82
2022/11/10 08:33:07;;;;;;;9.33;2.67;;;10.40;47.90;;;;;;5046370;28;20186;-80
2022/11/10 08:35:36;;;;;;;7.17;2.37;;;10.50;34.90;;;;;;5044372;28;20210;-82
2022/11/10 08:38:14;;;;;;;6.53;2.33;;;10.50;24.60;;;;;;5046242;28;20209;-84
2022/11/10 08:40:40;;;;;;;7.83;2.87;;;10.50;23.20;;;;;;5046001;28;20181;-83
2022/11/10 08:43:07;;;;;;;8.50;2.40;;;10.50;19.90;;;;;;5047474;28;20177;-82
2022/11/10 08:45:34;;;;;;;10.57;3.00;;;10.60;20.50;;;;;;5054270;28;20202;-81
2022/11/10 08:51:22;;;;;;;7.50;2.20;;;10.70;9.20;;;;;;5055848;28;20157;-83
2022/11/10 08:57:09;;;;;;;5.90;2.23;;;10.50;17.10;;;;;;5056738;28;20188;-82
2022/11/10 09:03:15;;;;;;;11.17;2.93;;;10.40;24.70;;;;;;5054905;28;20165;-81
2022/11/10 09:09:02;;;;;;;6.73;2.40;;;10.50;19.70;;;;;;5056557;28;20161;-82
2022/11/10 09:11:29;;;;;;;8.80;3.23;;;10.50;18.80;;;;;;5054925;28;20704;-84
2022/11/10 09:13:55;;;;;;;8.57;2.43;;;10.70;13.20;;;;;;5055870;28;20178;-80
2022/11/10 09:19:42;;;;;;;7.10;2.23;;;11.10;1.00;;;;;;5054701;28;20206;-84
2022/11/10 09:22:08;;;;;;;7.57;2.10;;;11.30;1.00;;;;;;5054039;28;20182;-83
2022/11/10 09:24:34;;;;;;;8.47;2.50;;;11.50;1.00;;;;;;5043524;28;20217;-84
2022/11/10 09:26:59;;;;;;;6.33;2.00;;;11.60;1.00;;;;;;5047458;28;20220;-83
2022/11/10 09:29:25;;;;;;;7.17;2.40;;;11.60;1.00;;;;;;5044634;28;20289;-82
2022/11/10 09:31:51;;;;;;;9.23;2.33;;;11.70;1.00;;;;;;5051068;28;20561;-87
2022/11/10 09:34:16;;;;;;;8.80;2.38;;;11.90;1.00;;;;;;5045182;28;20232;-85
2022/11/10 09:36:42;;;;;;;7.22;2.30;;;12.40;1.00;;;;;;5041970;28;20201;-83
2022/11/10 09:39:07;;;;;;;9.85;2.88;;;12.30;1.00;;;;;;5045530;28;20222;-82
2022/11/10 09:41:38;;;;;;;7.82;2.20;;;12.40;1.00;;;;;;5044507;28;20248;-82
2022/11/10 09:44:25;;;;;;;6.22;2.13;;;12.30;1.00;;;;;;5048047;28;20221;-83
2022/11/10 09:47:04;;;;;;;6.45;2.10;;;12.40;1.00;;;;;;5045320;28;20323;-83
2022/11/10 09:49:54;;;;;;;9.25;2.22;;;12.40;1.00;;;;;;5045164;28;20644;-83
2022/11/10 09:52:24;;;;;;;6.97;2.33;;;12.50;1.00;;;;;;5041809;28;20256;-81
2022/11/10 09:54:56;;;;;;;6.47;2.20;;;12.40;1.00;;;;;;5045707;28;20738;-82
2022/11/10 09:57:25;;;;;;;7.22;2.67;;;12.60;1.00;;;;;;5061542;28;20287;-82
2022/11/10 09:59:51;;;;;;;5.43;1.90;;;12.40;1.00;;;;;;5045643;28;20193;-81
2022/11/10 10:02:39;;;;;;;7.85;1.80;;;12.90;1.00;;;;;;5042378;28;20207;-81
2022/11/10 10:05:20;;;;;;;8.57;2.00;;;12.60;1.00;;;;;;5047770;28;20228;-85
2022/11/10 10:08:10;;;;;;;6.57;2.00;;;12.60;1.00;;;;;;5062385;28;20178;-82
2022/11/10 10:10:44;;;;;;;8.32;2.33;;;12.60;1.00;;;;;;5046648;28;20347;-82
2022/11/10 10:13:26;;;;;;;5.30;2.30;;;12.60;1.00;;;;;;5048061;28;20201;-80
2022/11/10 10:16:12;;;;;;;9.63;2.20;;;12.60;1.00;;;;;;5049130;28;20296;-81
2022/11/10 10:18:41;;;;;;;5.07;2.55;;;12.60;1.00;;;;;;5048621;28;20210;-82
2022/11/10 10:21:18;;;;;;;6.65;2.15;;;12.60;1.00;;;;;;5045843;28;20562;-82
2022/11/10 10:23:52;;;;;;;6.20;1.98;;;12.70;1.00;;;;;;5046545;28;20656;-82
2022/11/10 10:26:22;;;;;;;9.70;2.45;;;12.60;1.00;;;;;;5062776;28;20635;-84
2022/11/10 10:28:49;;;;;;;8.25;2.33;;;12.60;1.00;;;;;;5048443;28;20190;-82
2022/11/10 10:31:26;;;;;;;9.00;2.40;;;12.70;1.00;;;;;;5047689;28;20186;-80
2022/11/10 10:33:53;;;;;;;7.05;2.30;;;13.00;1.00;;;;;;5046303;28;20668;-80
2022/11/10 10:36:24;;;;;;;8.75;2.53;;;13.30;1.00;;;;;;5044950;28;20201;-82
2022/11/10 10:38:54;;;;;;;11.02;2.30;;;13.00;1.00;;;;;;5043946;28;20214;-82
2022/11/10 10:41:26;;;;;;;6.57;2.38;;;13.10;1.00;;;;;;5043835;28;20186;-80
2022/11/10 10:43:55;;;;;;;8.73;2.03;;;12.90;1.00;;;;;;5047900;28;20186;-80
2022/11/10 10:46:25;;;;;;;8.20;1.88;;;13.00;1.00;;;;;;5046222;28;20640;-79
2022/11/10 10:49:16;;;;;;;7.68;2.13;;;13.00;1.00;;;;;;5048095;28;20185;-79
2022/11/10 10:51:42;;;;;;;8.75;2.25;;;13.10;1.00;;;;;;5046804;28;20183;-79
2022/11/10 10:54:28;;;;;;;10.07;1.95;;;13.10;1.00;;;;;;5044501;28;20209;-83
2022/11/10 10:57:04;;;;;;;10.35;2.60;;;13.20;1.00;;;;;;5047325;28;20197;-83
2022/11/10 10:59:30;;;;;;;6.75;2.00;;;13.20;1.00;;;;;;5045852;28;20232;-81
2022/11/10 11:01:56;;;;;;;7.45;1.98;;;13.20;1.00;;;;;;5062159;28;20178;-80
2022/11/10 11:04:41;;;;;;;7.82;2.20;;;13.20;1.00;;;;;;5044406;28;20205;-80
2022/11/10 11:07:20;;;;;;;9.20;2.05;;;13.30;1.00;;;;;;5047234;28;20263;-82
2022/11/10 11:09:46;;;;;;;6.40;1.88;;;13.20;1.00;;;;;;5046079;28;20185;-79
2022/11/10 11:12:13;;;;;;;8.57;1.90;;;13.20;1.00;;;;;;5045028;28;20621;-81
2022/11/10 11:14:39;;;;;;;8.68;2.22;;;13.20;1.00;;;;;;5046199;28;20713;-82
2022/11/10 11:17:20;;;;;;;8.00;2.22;;;13.10;1.00;;;;;;5044866;28;20182;-80
2022/11/10 11:19:47;;;;;;;11.23;2.45;;;13.10;1.00;;;;;;5047852;28;20190;-80
2022/11/10 11:22:26;;;;;;;8.35;2.28;;;13.10;1.00;;;;;;5045593;28;20659;-79
2022/11/10 11:25:20;;;;;;;8.52;2.15;;;13.20;1.00;;;;;;5048775;28;20217;-80
2022/11/10 11:28:12;;;;;;;9.43;2.00;;;13.20;1.00;;;;;;5048904;28;20632;-81
2022/11/10 11:31:08;;;;;;;7.10;2.08;;;13.10;1.00;;;;;;5048182;28;20285;-81
2022/11/10 11:34:13;;;;;;;6.13;1.80;;;13.10;1.00;;;;;;5042207;28;20197;-80
2022/11/10 11:37:06;;;;;;;6.72;1.98;;;13.20;1.00;;;;;;5047541;28;20182;-83
2022/11/10 11:39:54;;;;;;;8.30;2.22;;;13.20;1.00;;;;;;5046757;28;20189;-82
2022/11/10 11:42:49;;;;;;;7.53;2.05;;;13.40;1.00;;;;;;5045800;28;20181;-80
2022/11/10 11:45:35;;;;;;;10.85;2.30;;;13.40;1.00;;;;;;5043490;28;20206;-82
2022/11/10 11:48:42;;;;;;;7.45;1.90;;;13.40;1.00;;;;;;5046513;28;20698;-80
2022/11/10 11:51:40;;;;;;;5.55;1.77;;;13.30;1.00;;;;;;5029218;28;20289;-81
2022/11/10 11:54:14;;;;;;;9.20;2.67;;;13.30;1.00;;;;;;5044158;28;20587;-81
2022/11/10 11:56:44;;;;;;;5.70;1.67;;;13.30;1.00;;;;;;5048360;28;20186;-83
2022/11/10 11:59:16;;;;;;;4.13;1.60;;;13.40;1.00;;;;;;5048169;28;20300;-80
2022/11/10 12:02:11;;;;;;;9.90;2.10;;;13.50;1.00;;;;;;5062925;28;20182;-81
2022/11/10 12:04:44;;;;;;;5.15;1.80;;;13.60;1.00;;;;;;5028577;28;20300;-82
2022/11/10 12:07:30;;;;;;;8.60;1.95;;;13.60;1.00;;;;;;5049007;28;20174;-82
2022/11/10 12:10:09;;;;;;;6.05;1.90;;;13.70;1.00;;;;;;5048572;28;20268;-80
2022/11/10 12:12:58;;;;;;;7.47;1.85;;;13.70;1.00;;;;;;5046548;28;20265;-80
2022/11/10 12:15:45;;;;;;;9.10;2.20;;;13.80;1.00;;;;;;5047143;28;20217;-82
2022/11/10 12:18:32;;;;;;;5.32;1.80;;;13.90;1.00;;;;;;5060927;28;20680;-82
2022/11/10 12:21:23;;;;;;;6.97;2.15;;;13.90;1.00;;;;;;5040631;28;20201;-83
2022/11/10 12:24:06;;;;;;;4.90;1.38;;;13.90;1.00;;;;;;5057786;28;20205;-81
2022/11/10 12:26:47;;;;;;;7.35;2.38;;;14.00;1.00;;;;;;5044707;28;20231;-81
2022/11/10 12:29:52;;;;;;;7.13;2.00;;;14.00;1.00;;;;;;5043866;28;20213;-81
2022/11/10 12:32:30;;;;;;;6.18;1.70;;;14.00;1.00;;;;;;5047633;28;20675;-82
2022/11/10 12:35:00;;;;;;;5.50;1.73;;;13.90;1.00;;;;;;5046791;28;20263;-80
2022/11/10 12:37:38;;;;;;;7.07;1.75;;;13.90;1.00;;;;;;5050756;28;20227;-80
2022/11/10 12:40:16;;;;;;;4.95;1.88;;;13.70;1.00;;;;;;5047636;28;20178;-81
2022/11/10 12:42:46;;;;;;;7.30;1.98;;;13.60;1.00;;;;;;5043182;28;20181;-81
2022/11/10 12:45:50;;;;;;;7.05;2.03;;;13.50;1.00;;;;;;5044156;28;20202;-82
2022/11/10 12:48:17;;;;;;;9.93;2.40;;;13.40;1.00;;;;;;4969638;28;20191;-78
2022/11/10 12:51:10;;;;;;;4.68;1.85;;;13.40;1.00;;;;;;5048137;28;20281;-78
2022/11/10 12:53:40;;;;;;;8.77;2.30;;;13.40;1.00;;;;;;5048883;28;20182;-82
2022/11/10 12:56:22;;;;;;;7.70;1.75;;;13.40;1.00;;;;;;5040914;28;20213;-86
2022/11/10 12:59:08;;;;;;;6.43;1.67;;;13.40;1.00;;;;;;5039999;28;20242;-81
2022/11/10 13:01:41;;;;;;;7.25;1.63;;;13.50;1.00;;;;;;5049073;28;20721;-80
2022/11/10 13:04:06;;;;;;;6.03;1.77;;;13.50;1.00;;;;;;5052735;28;20833;-79
2022/11/10 13:06:35;;;;;;;11.68;4.75;;;13.60;1.00;;;;;;5053911;28;20187;-79
2022/11/10 13:09:02;;;;;;;5.63;2.60;;;13.60;1.00;;;;;;5055278;28;20206;-79
2022/11/10 13:11:34;;;;;;;8.95;2.30;;;13.70;1.00;;;;;;5052422;28;20182;-81
2022/11/10 13:14:17;;;;;;;6.65;2.10;;;13.80;1.00;;;;;;5053465;28;20186;-79
2022/11/10 13:16:50;;;;;;;6.10;2.10;;;13.80;1.00;;;;;;5053786;28;20197;-79
2022/11/10 13:19:27;;;;;;;6.05;1.80;;;13.90;1.00;;;;;;5051830;28;20209;-78
2022/11/10 13:21:59;;;;;;;5.47;1.70;;;14.00;1.00;;;;;;5043145;28;20193;-83
2022/11/10 13:24:30;;;;;;;5.47;1.67;;;14.10;1.00;;;;;;5043012;28;20236;-81
2022/11/10 13:27:31;;;;;;;6.32;2.00;;;14.10;1.00;;;;;;5053634;28;20178;-79
2022/11/10 13:29:58;;;;;;;8.70;2.88;;;14.10;1.00;;;;;;5007556;28;20191;-78
2022/11/10 13:32:25;;;;;;;13.80;6.05;;;14.10;1.00;;;;;;5048128;28;20186;-79
2022/11/10 13:34:52;;;;;;;15.43;6.28;;;14.10;1.00;;;;;;5057879;28;20221;-79
2022/11/10 13:37:33;;;;;;;7.72;2.97;;;14.10;1.00;;;;;;5056362;28;20236;-78
2022/11/10 13:40:17;;;;;;;6.78;2.65;;;13.90;1.00;;;;;;5072807;28;20182;-79